Orbital elements of CZ-4 DEB
| Launched | 2 September 1990 |
| Flight ended | – |
| Launch site | Taiyuan Space Center, PRC |
| Owner | People's Republic of China |
| NORAD ID | 20881 |
| Date fetched |
Epoch osculation |
Inc. [°] |
Ecc. | RA asc node [hr] |
Arg Peri. [°] |
Mean anom [°] |
Mean motion [rev/day] |
Abs. mag |
| Date fetched |
Epoch osculation |
Inc. [°] |
Ecc. | RA asc node [hr] |
Arg Peri. [°] |
Mean anom [°] |
Mean motion [rev/day] |
Abs. mag |
| 2026 May 04 17:57 | 2026 Apr 30 11:25:28 | 98.4708 | 0.00717 | 8.7047 | 61.6425 | 299.1969 | 14.46599 | – |
| 2026 May 03 17:57 | 2026 Apr 30 11:25:28 | 98.4708 | 0.00717 | 8.7047 | 61.6425 | 299.1969 | 14.46599 | – |
| 2026 May 02 17:57 | 2026 Apr 30 11:25:28 | 98.4708 | 0.00717 | 8.7047 | 61.6425 | 299.1969 | 14.46599 | – |
| 2026 May 01 17:56 | 2026 Apr 30 11:25:28 | 98.4708 | 0.00717 | 8.7047 | 61.6425 | 299.1969 | 14.46599 | – |
| 2026 Apr 30 17:56 | 2026 Apr 30 11:25:28 | 98.4708 | 0.00717 | 8.7047 | 61.6425 | 299.1969 | 14.46599 | – |
| 2026 Apr 29 17:57 | 2026 Apr 24 12:39:33 | 98.4722 | 0.00719 | 8.3081 | 79.3335 | 299.1969 | 14.46599 | – |
| 2026 Apr 28 17:56 | 2026 Apr 24 12:39:33 | 98.4722 | 0.00719 | 8.3081 | 79.3335 | 299.1969 | 14.46599 | – |
| 2026 Apr 27 17:58 | 2026 Apr 24 12:39:33 | 98.4722 | 0.00719 | 8.3081 | 79.3335 | 299.1969 | 14.46599 | – |
| 2026 Apr 26 17:58 | 2026 Apr 24 12:39:33 | 98.4722 | 0.00719 | 8.3081 | 79.3335 | 299.1969 | 14.46599 | – |
| 2026 Apr 25 17:58 | 2026 Apr 24 12:39:33 | 98.4722 | 0.00719 | 8.3081 | 79.3335 | 299.1969 | 14.46599 | – |
| 2026 Apr 24 17:59 | 2026 Apr 24 12:39:33 | 98.4722 | 0.00719 | 8.3081 | 79.3335 | 299.1969 | 14.46599 | – |
| 2026 Apr 23 17:57 | 2026 Apr 19 06:29:24 | 98.4722 | 0.00720 | 7.9576 | 94.9523 | 299.1969 | 14.46599 | – |
| 2026 Apr 22 17:57 | 2026 Apr 19 06:29:24 | 98.4722 | 0.00720 | 7.9576 | 94.9523 | 299.1969 | 14.46599 | – |
| 2026 Apr 21 17:57 | 2026 Apr 19 06:29:24 | 98.4722 | 0.00720 | 7.9576 | 94.9523 | 299.1969 | 14.46599 | – |
| 2026 Apr 20 17:57 | 2026 Apr 19 06:29:24 | 98.4722 | 0.00720 | 7.9576 | 94.9523 | 299.1969 | 14.46599 | – |
| 2026 Apr 19 17:58 | 2026 Apr 19 06:29:24 | 98.4722 | 0.00720 | 7.9576 | 94.9523 | 299.1969 | 14.46599 | – |
| 2026 Apr 18 17:56 | 2026 Apr 12 23:24:53 | 98.4725 | 0.00719 | 7.5379 | 113.6725 | 299.1969 | 14.46599 | – |
| 2026 Apr 16 17:57 | 2026 Apr 12 23:24:53 | 98.4725 | 0.00719 | 7.5379 | 113.6725 | 299.1969 | 14.46599 | – |
| 2026 Apr 14 17:57 | 2026 Apr 12 23:24:53 | 98.4725 | 0.00719 | 7.5379 | 113.6725 | 299.1969 | 14.46599 | – |
| 2026 Apr 13 17:57 | 2026 Apr 12 23:24:53 | 98.4725 | 0.00719 | 7.5379 | 113.6725 | 299.1969 | 14.46599 | – |
| 2026 Apr 12 17:57 | 2026 Apr 08 11:30:04 | 98.4734 | 0.00718 | 7.2382 | 127.0604 | 299.1969 | 14.46599 | – |
| 2026 Apr 11 17:57 | 2026 Apr 08 11:30:04 | 98.4734 | 0.00718 | 7.2382 | 127.0604 | 299.1969 | 14.46599 | – |
| 2026 Apr 10 17:58 | 2026 Apr 08 11:30:04 | 98.4734 | 0.00718 | 7.2382 | 127.0604 | 299.1969 | 14.46599 | – |
| 2026 Apr 09 18:01 | 2026 Apr 08 11:30:04 | 98.4734 | 0.00718 | 7.2382 | 127.0604 | 299.1969 | 14.46599 | – |
| 2026 Apr 08 17:57 | 2026 Apr 08 11:30:04 | 98.4734 | 0.00718 | 7.2382 | 127.0604 | 299.1969 | 14.46599 | – |
| 2026 Apr 07 17:57 | 2026 Apr 02 06:04:38 | 98.4731 | 0.00716 | 6.8231 | 145.5663 | 299.1969 | 14.46599 | – |